createdAt,value
2023-02-22T00:00:42.818Z,13.98
2023-02-22T00:03:12.703Z,15.90
2023-02-22T00:05:45.038Z,9.68
2023-02-22T00:08:12.508Z,11.00
2023-02-22T00:10:40.878Z,10.88
2023-02-22T00:13:11.069Z,12.57
2023-02-22T00:15:41.330Z,11.70
2023-02-22T00:18:14.816Z,12.27
2023-02-22T00:20:44.080Z,10.80
2023-02-22T00:23:18.863Z,9.90
2023-02-22T00:25:47.100Z,11.40
2023-02-22T00:28:17.034Z,12.70
2023-02-22T00:30:44.727Z,9.43
2023-02-22T00:33:13.630Z,10.48
2023-02-22T00:35:41.393Z,9.63
2023-02-22T00:38:10.188Z,10.38
2023-02-22T00:40:37.674Z,11.63
2023-02-22T00:43:06.590Z,7.43
2023-02-22T00:45:36.193Z,11.20
2023-02-22T00:48:05.443Z,10.48
2023-02-22T00:50:34.139Z,9.10
2023-02-22T00:53:03.660Z,10.20
2023-02-22T00:55:34.964Z,6.88
2023-02-22T00:58:02.918Z,11.65
2023-02-22T01:00:31.992Z,10.15
2023-02-22T01:03:00.536Z,9.55
2023-02-22T01:05:30.734Z,10.45
2023-02-22T01:08:00.015Z,9.95
2023-02-22T01:10:30.129Z,7.93
2023-02-22T01:13:00.454Z,9.88
2023-02-22T01:15:30.885Z,11.68
2023-02-22T01:17:59.461Z,8.77
2023-02-22T01:20:29.016Z,7.40
2023-02-22T01:22:58.507Z,7.07
2023-02-22T01:25:28.420Z,8.80
2023-02-22T01:27:57.259Z,6.35
2023-02-22T01:30:29.346Z,10.38
2023-02-22T01:32:57.270Z,6.57
2023-02-22T01:35:28.162Z,7.22
2023-02-22T01:37:56.246Z,8.07
2023-02-22T01:40:25.863Z,8.82
2023-02-22T01:42:57.579Z,6.78
2023-02-22T01:45:50.439Z,6.68
2023-02-22T01:48:24.768Z,6.70
2023-02-22T01:50:56.173Z,6.82
2023-02-22T01:53:27.566Z,6.50
2023-02-22T01:55:56.745Z,7.82
2023-02-22T01:58:26.973Z,7.72
2023-02-22T02:00:57.482Z,6.68
2023-02-22T02:03:28.876Z,10.48
2023-02-22T02:06:00.752Z,7.28
2023-02-22T02:08:36.048Z,8.63
2023-02-22T02:11:07.924Z,6.22
2023-02-22T02:13:36.835Z,8.88
2023-02-22T02:16:06.196Z,6.82
2023-02-22T02:18:33.762Z,7.53
2023-02-22T02:21:40.316Z,6.50
2023-02-22T02:24:39.507Z,8.95
2023-02-22T02:27:12.804Z,6.15
2023-02-22T02:30:11.868Z,8.07
2023-02-22T02:32:52.888Z,6.45
2023-02-22T02:35:27.606Z,6.28
2023-02-22T02:38:02.568Z,8.88
2023-02-22T02:40:37.286Z,5.00
2023-02-22T02:43:15.188Z,5.72
2023-02-22T02:45:48.900Z,7.40
2023-02-22T02:48:20.604Z,8.70
2023-02-22T02:50:50.057Z,5.90
2023-02-22T02:53:23.152Z,7.38
2023-02-22T02:55:50.645Z,8.52
2023-02-22T02:58:20.847Z,14.30
2023-02-22T03:00:52.907Z,10.63
2023-02-22T03:03:49.744Z,9.15
2023-02-22T03:06:34.325Z,8.60
2023-02-22T03:09:13.755Z,10.75
2023-02-22T03:11:50.748Z,8.45
2023-02-22T03:14:26.050Z,8.00
2023-02-22T03:17:01.833Z,11.15
2023-02-22T03:19:37.004Z,11.40
2023-02-22T03:22:13.973Z,10.40
2023-02-22T03:24:52.844Z,9.77
2023-02-22T03:27:27.908Z,11.40
2023-02-22T03:30:00.260Z,10.15
2023-02-22T03:32:31.595Z,10.20
2023-02-22T03:35:06.379Z,9.20
2023-02-22T03:37:39.529Z,9.02
2023-02-22T03:40:13.855Z,11.45
2023-02-22T03:42:47.013Z,8.73
2023-02-22T03:45:16.634Z,11.82
2023-02-22T03:47:50.178Z,11.38
2023-02-22T03:50:25.175Z,11.15
2023-02-22T03:52:54.083Z,13.65
2023-02-22T03:55:23.603Z,10.20
2023-02-22T03:57:55.412Z,10.75
2023-02-22T04:00:24.798Z,10.07
2023-02-22T04:02:52.632Z,10.57
2023-02-22T04:05:22.022Z,13.13
2023-02-22T04:07:49.475Z,9.57
2023-02-22T04:10:17.163Z,12.23
2023-02-22T04:12:44.674Z,10.88
2023-02-22T04:15:15.412Z,12.23
2023-02-22T04:17:42.903Z,11.85
2023-02-22T04:20:12.578Z,10.60
2023-02-22T04:22:41.499Z,10.80
2023-02-22T04:25:09.482Z,12.85
2023-02-22T04:27:36.941Z,11.43
2023-02-22T04:30:04.880Z,14.98
2023-02-22T04:32:32.336Z,12.73
2023-02-22T04:34:59.786Z,12.48
2023-02-22T04:37:27.228Z,17.02
2023-02-22T04:39:56.038Z,13.43
2023-02-22T04:42:23.707Z,12.77
2023-02-22T04:44:51.316Z,12.23
2023-02-22T04:47:18.842Z,14.35
2023-02-22T04:49:46.531Z,11.13
2023-02-22T04:52:15.473Z,12.77
2023-02-22T04:54:42.938Z,12.68
2023-02-22T04:57:12.012Z,14.02
2023-02-22T04:59:40.555Z,11.38
2023-02-22T05:02:08.029Z,10.45
2023-02-22T05:04:36.008Z,12.85
2023-02-22T05:07:03.503Z,12.40
2023-02-22T05:09:31.015Z,11.70
2023-02-22T05:11:58.606Z,13.20
2023-02-22T05:14:27.581Z,15.85
2023-02-22T05:16:56.023Z,11.80
2023-02-22T05:19:23.577Z,16.20
2023-02-22T05:21:51.357Z,14.68
2023-02-22T05:24:18.826Z,11.80
2023-02-22T05:26:46.838Z,13.98
2023-02-22T05:29:14.966Z,14.45
2023-02-22T05:31:43.842Z,13.48
2023-02-22T05:34:11.359Z,14.10
2023-02-22T05:36:38.872Z,13.60
2023-02-22T05:39:06.385Z,13.98
2023-02-22T05:41:33.890Z,20.50
2023-02-22T05:44:02.877Z,15.02
2023-02-22T05:46:30.664Z,14.77
2023-02-22T05:48:59.606Z,14.40
2023-02-22T05:51:27.115Z,15.68
2023-02-22T05:53:54.535Z,13.57
2023-02-22T05:56:23.606Z,16.13
2023-02-22T05:58:51.279Z,14.88
2023-02-22T06:01:19.216Z,12.52
2023-02-22T06:03:48.122Z,17.15
2023-02-22T06:06:17.678Z,15.65
2023-02-22T06:08:45.428Z,16.30
2023-02-22T06:11:13.169Z,17.75
2023-02-22T06:13:41.250Z,12.30
2023-02-22T06:16:09.137Z,13.50
2023-02-22T06:18:36.637Z,14.90
2023-02-22T06:21:04.339Z,13.63
2023-02-22T06:23:33.111Z,20.42
2023-02-22T06:26:00.584Z,13.05
2023-02-22T06:28:27.994Z,12.68
2023-02-22T06:30:55.410Z,13.93
2023-02-22T06:33:22.878Z,16.13
2023-02-22T06:35:50.295Z,15.90
2023-02-22T06:38:23.011Z,13.90
2023-02-22T06:40:52.036Z,14.25
2023-02-22T06:43:19.498Z,16.67
2023-02-22T06:45:47.076Z,12.68
2023-02-22T06:48:14.998Z,14.60
2023-02-22T06:50:42.449Z,15.50
2023-02-22T06:53:10.129Z,20.67
2023-02-22T06:55:37.633Z,13.73
2023-02-22T06:58:06.430Z,19.13
2023-02-22T07:00:34.761Z,15.82
2023-02-22T07:03:02.552Z,15.30
2023-02-22T07:05:30.060Z,14.90
2023-02-22T07:08:04.358Z,15.57
2023-02-22T07:10:33.506Z,16.13
2023-02-22T07:13:01.643Z,12.77
2023-02-22T07:15:32.524Z,15.80
2023-02-22T07:18:00.706Z,14.25
2023-02-22T07:20:30.490Z,12.10
2023-02-22T07:22:58.001Z,12.52
2023-02-22T07:25:25.735Z,14.73
2023-02-22T07:27:53.345Z,16.73
2023-02-22T07:30:25.810Z,16.23
2023-02-22T07:32:55.913Z,11.25
2023-02-22T07:35:26.427Z,13.63
2023-02-22T07:37:55.886Z,14.80
2023-02-22T07:40:25.069Z,13.20
2023-02-22T07:42:56.480Z,14.40
2023-02-22T07:45:25.257Z,13.25
2023-02-22T07:47:52.762Z,13.98
2023-02-22T07:50:22.993Z,10.95
2023-02-22T07:52:52.280Z,14.25
2023-02-22T07:55:22.648Z,13.18
2023-02-22T07:57:52.018Z,12.70
2023-02-22T08:00:24.553Z,14.35
2023-02-22T08:02:52.286Z,12.27
2023-02-22T08:05:23.121Z,13.57
2023-02-22T08:07:50.837Z,12.40
2023-02-22T08:10:20.927Z,15.30
2023-02-22T08:12:49.324Z,14.73
2023-02-22T08:15:18.764Z,11.50
2023-02-22T08:17:46.239Z,14.02
2023-02-22T08:20:14.111Z,16.75
2023-02-22T08:22:45.138Z,13.50
2023-02-22T08:25:12.974Z,12.43
2023-02-22T08:27:40.406Z,15.48
2023-02-22T08:30:09.357Z,12.10
2023-02-22T08:32:36.881Z,17.05
2023-02-22T08:35:04.804Z,14.18
2023-02-22T08:37:32.320Z,13.60
2023-02-22T08:40:01.209Z,15.32
2023-02-22T08:42:28.640Z,13.23
2023-02-22T08:44:56.061Z,14.52
2023-02-22T08:47:23.492Z,13.43
2023-02-22T08:49:50.891Z,17.95
2023-02-22T08:52:18.319Z,14.07
2023-02-22T08:54:46.486Z,12.45
2023-02-22T08:57:15.266Z,15.05
2023-02-22T08:59:42.766Z,12.05
2023-02-22T09:02:15.569Z,14.77
2023-02-22T09:04:43.213Z,7.30
2023-02-22T09:07:10.844Z,9.98
2023-02-22T09:09:38.335Z,10.25
2023-02-22T09:12:06.559Z,10.95
2023-02-22T09:14:35.334Z,12.23
2023-02-22T09:17:05.389Z,11.15
2023-02-22T09:19:33.198Z,13.02
2023-02-22T09:22:01.162Z,11.73
2023-02-22T09:24:29.213Z,12.77
2023-02-22T09:26:56.688Z,16.35
2023-02-22T09:29:26.380Z,14.32
2023-02-22T09:31:56.771Z,12.95
2023-02-22T09:34:29.379Z,13.38
2023-02-22T09:36:58.055Z,13.10
2023-02-22T09:39:25.823Z,12.60
2023-02-22T09:42:03.160Z,12.60
2023-02-22T09:44:37.388Z,11.70
2023-02-22T09:47:10.519Z,13.07
2023-02-22T09:49:45.767Z,17.30
2023-02-22T09:52:18.627Z,16.10
2023-02-22T09:54:51.673Z,16.88
2023-02-22T09:57:22.610Z,14.45
2023-02-22T10:00:01.612Z,13.60
2023-02-22T10:02:34.735Z,14.38
2023-02-22T10:05:08.260Z,12.97
2023-02-22T10:07:40.410Z,11.38
2023-02-22T10:10:13.730Z,17.33
2023-02-22T10:12:53.350Z,14.85
2023-02-22T10:15:43.480Z,13.60
2023-02-22T10:18:56.611Z,11.83
2023-02-22T10:21:50.272Z,12.38
2023-02-22T10:24:30.288Z,11.30
2023-02-22T10:26:59.807Z,13.57
2023-02-22T10:29:33.543Z,11.43
2023-02-22T10:32:04.566Z,11.77
2023-02-22T10:34:39.061Z,11.07
2023-02-22T10:37:20.052Z,15.10
2023-02-22T10:39:52.760Z,13.90
2023-02-22T10:42:26.250Z,13.85
2023-02-22T10:44:53.704Z,12.80
2023-02-22T10:47:22.235Z,14.32
2023-02-22T10:49:55.489Z,11.57
2023-02-22T10:52:26.896Z,11.77
2023-02-22T10:55:13.634Z,14.30
2023-02-22T10:57:45.348Z,13.80
2023-02-22T11:00:20.209Z,12.20
2023-02-22T11:02:53.650Z,10.48
2023-02-22T11:05:32.796Z,13.80
2023-02-22T11:08:16.702Z,18.48
2023-02-22T11:10:44.477Z,10.60
2023-02-22T11:13:19.413Z,12.88
2023-02-22T11:15:46.872Z,14.30
2023-02-22T11:18:24.942Z,14.25
2023-02-22T11:21:03.035Z,13.48
2023-02-22T11:23:30.947Z,14.57
2023-02-22T11:26:05.214Z,14.13
2023-02-22T11:28:33.132Z,13.55
2023-02-22T11:31:11.980Z,12.07
2023-02-22T11:33:39.825Z,12.65
2023-02-22T11:36:10.147Z,13.23
2023-02-22T11:38:38.713Z,14.32
2023-02-22T11:41:18.367Z,13.43
2023-02-22T11:43:47.837Z,13.63
2023-02-22T11:46:18.730Z,11.50
2023-02-22T11:48:57.721Z,9.87
2023-02-22T11:51:38.674Z,12.73
2023-02-22T11:54:19.347Z,12.85
2023-02-22T11:56:49.858Z,10.98
2023-02-22T11:59:27.710Z,10.65
2023-02-22T12:01:59.842Z,10.33
2023-02-22T12:04:50.697Z,10.63
2023-02-22T12:07:42.096Z,8.15
2023-02-22T12:10:20.727Z,9.63
2023-02-22T12:13:01.652Z,9.25
2023-02-22T12:15:34.199Z,6.27
2023-02-22T12:18:10.079Z,6.80
2023-02-22T12:20:41.230Z,7.70
2023-02-22T12:23:19.453Z,8.70
2023-02-22T12:26:01.074Z,6.40
2023-02-22T12:28:35.445Z,9.43
2023-02-22T12:31:12.218Z,6.22
2023-02-22T12:33:49.437Z,9.52
2023-02-22T12:36:22.201Z,7.15
2023-02-22T12:38:59.816Z,6.40
2023-02-22T12:41:33.948Z,7.03
2023-02-22T12:44:07.080Z,5.68
2023-02-22T12:46:39.573Z,8.13
2023-02-22T12:49:15.057Z,7.22
2023-02-22T12:51:49.613Z,6.75
2023-02-22T12:54:25.499Z,7.40
2023-02-22T12:57:00.171Z,6.45
2023-02-22T12:59:33.310Z,6.32
2023-02-22T13:02:12.126Z,6.43
2023-02-22T13:04:39.607Z,6.30
2023-02-22T13:07:19.494Z,5.93
2023-02-22T13:10:01.039Z,6.32
2023-02-22T13:12:37.230Z,5.93
2023-02-22T13:15:15.020Z,8.65
2023-02-22T13:17:50.367Z,7.32
2023-02-22T13:20:25.901Z,8.50
2023-02-22T13:23:01.506Z,8.98
2023-02-22T13:25:38.271Z,7.68
2023-02-22T13:28:19.894Z,7.25
2023-02-22T13:30:56.218Z,8.27
2023-02-22T13:33:42.932Z,8.27
2023-02-22T13:36:20.899Z,8.07
2023-02-22T13:39:17.719Z,12.07
2023-02-22T13:41:56.087Z,13.82
2023-02-22T13:44:57.106Z,9.55
2023-02-22T13:47:39.851Z,13.10
2023-02-22T13:50:29.406Z,8.38
2023-02-22T13:52:59.007Z,9.32
2023-02-22T13:55:32.676Z,10.50
2023-02-22T13:58:04.115Z,14.77
2023-02-22T14:00:45.233Z,15.17
2023-02-22T14:03:40.304Z,10.13
2023-02-22T14:06:10.164Z,10.38
2023-02-22T14:08:47.725Z,11.70
2023-02-22T14:11:46.409Z,13.18
2023-02-22T14:14:18.236Z,11.90
2023-02-22T14:16:53.489Z,12.38
2023-02-22T14:19:23.478Z,10.20
2023-02-22T14:22:01.907Z,13.27
2023-02-22T14:24:31.449Z,16.05
2023-02-22T14:27:05.018Z,12.00
2023-02-22T14:29:33.803Z,13.23
2023-02-22T14:32:07.540Z,17.35
2023-02-22T14:34:58.208Z,12.70
2023-02-22T14:37:28.277Z,13.00
2023-02-22T14:40:02.136Z,14.43
2023-02-22T14:42:32.710Z,15.13
2023-02-22T14:45:06.444Z,16.20
2023-02-22T14:47:49.340Z,14.65
2023-02-22T14:50:23.065Z,15.20
2023-02-22T14:53:00.743Z,13.07
2023-02-22T14:55:31.344Z,23.25
2023-02-22T14:58:04.173Z,15.38
2023-02-22T15:00:41.844Z,13.15
2023-02-22T15:03:19.465Z,15.77
2023-02-22T15:05:47.117Z,13.87
2023-02-22T15:08:17.000Z,15.98
2023-02-22T15:10:46.300Z,14.57
2023-02-22T15:13:18.616Z,13.73
2023-02-22T15:15:49.759Z,15.40
2023-02-22T15:18:24.667Z,13.83
2023-02-22T15:20:56.094Z,11.18
2023-02-22T15:23:26.255Z,12.40
2023-02-22T15:25:54.352Z,16.25
2023-02-22T15:28:24.072Z,16.35
2023-02-22T15:30:52.821Z,15.50
2023-02-22T15:33:24.107Z,16.83
2023-02-22T15:35:56.491Z,16.85
2023-02-22T15:38:29.548Z,17.48
2023-02-22T15:41:02.466Z,15.10
2023-02-22T15:43:31.948Z,16.53
2023-02-22T15:46:02.163Z,17.60
2023-02-22T15:48:31.503Z,12.02
2023-02-22T15:51:04.053Z,18.45
2023-02-22T15:53:39.929Z,15.73
2023-02-22T15:56:13.155Z,18.50
2023-02-22T15:58:41.435Z,22.30
2023-02-22T16:01:14.040Z,17.33
2023-02-22T16:03:46.300Z,21.20
2023-02-22T16:06:17.193Z,18.70
2023-02-22T16:08:55.246Z,19.33
2023-02-22T16:11:29.788Z,19.70
2023-02-22T16:14:00.897Z,20.15
2023-02-22T16:16:35.268Z,17.77
2023-02-22T16:19:35.851Z,18.25
2023-02-22T16:22:13.308Z,20.87
2023-02-22T16:24:41.213Z,20.38
2023-02-22T16:27:19.353Z,18.58
2023-02-22T16:30:04.423Z,21.20
2023-02-22T16:32:36.694Z,21.92
2023-02-22T16:35:04.283Z,19.10
2023-02-22T16:37:31.791Z,17.70
2023-02-22T16:39:59.223Z,23.00
2023-02-22T16:42:26.673Z,19.15
2023-02-22T16:44:54.330Z,23.40
2023-02-22T16:47:22.006Z,19.40
2023-02-22T16:49:52.847Z,22.75
2023-02-22T16:52:21.445Z,19.42
2023-02-22T16:54:49.429Z,22.08
2023-02-22T16:57:20.248Z,21.27
2023-02-22T16:59:51.962Z,21.77
2023-02-22T17:02:20.459Z,22.30
2023-02-22T17:04:50.803Z,20.65
2023-02-22T17:07:23.758Z,19.95
2023-02-22T17:09:51.858Z,22.13
2023-02-22T17:12:19.481Z,21.60
2023-02-22T17:14:47.258Z,20.63
2023-02-22T17:17:16.071Z,19.17
2023-02-22T17:19:43.761Z,23.92
2023-02-22T17:22:18.582Z,21.83
2023-02-22T17:24:47.720Z,24.17
2023-02-22T17:27:15.524Z,23.73
2023-02-22T17:29:44.878Z,23.25
2023-02-22T17:32:13.731Z,20.30
2023-02-22T17:34:41.601Z,21.70
2023-02-22T17:37:09.050Z,22.27
2023-02-22T17:39:36.478Z,23.52
2023-02-22T17:42:05.413Z,22.33
2023-02-22T17:44:33.328Z,24.80
2023-02-22T17:47:00.758Z,26.08
2023-02-22T17:49:28.275Z,21.93
2023-02-22T17:51:56.194Z,24.50
2023-02-22T17:54:24.409Z,27.95
2023-02-22T17:56:51.823Z,25.30
2023-02-22T17:59:20.579Z,22.38
2023-02-22T18:01:48.826Z,24.47
2023-02-22T18:04:16.327Z,26.63
2023-02-22T18:06:43.787Z,21.45
2023-02-22T18:09:11.460Z,23.85
2023-02-22T18:11:40.344Z,26.05
2023-02-22T18:14:10.560Z,23.73
2023-02-22T18:16:39.628Z,23.55
2023-02-22T18:19:07.333Z,24.13
2023-02-22T18:21:38.681Z,27.42
2023-02-22T18:24:07.031Z,26.13
2023-02-22T18:26:34.573Z,21.20
2023-02-22T18:29:02.252Z,22.58
2023-02-22T18:31:29.929Z,23.90
2023-02-22T18:33:58.812Z,23.00
2023-02-22T18:36:26.512Z,26.15
2023-02-22T18:38:55.536Z,22.43
2023-02-22T18:41:26.208Z,26.50
2023-02-22T18:43:55.175Z,24.15
2023-02-22T18:46:25.318Z,28.88
2023-02-22T18:48:54.593Z,25.42
2023-02-22T18:51:24.544Z,24.33
2023-02-22T18:53:56.708Z,26.48
2023-02-22T18:56:29.424Z,24.33
2023-02-22T18:58:58.540Z,26.88
2023-02-22T19:01:29.239Z,28.73
2023-02-22T19:03:57.274Z,24.87
2023-02-22T19:06:26.188Z,23.77
2023-02-22T19:08:53.919Z,24.25
2023-02-22T19:11:23.600Z,28.02
2023-02-22T19:13:53.787Z,33.65
2023-02-22T19:16:23.440Z,25.20
2023-02-22T19:18:56.783Z,27.65
2023-02-22T19:21:26.426Z,25.50
2023-02-22T19:23:54.285Z,24.50
2023-02-22T19:26:24.818Z,31.85
2023-02-22T19:28:53.651Z,31.97
2023-02-22T19:31:26.313Z,23.02
2023-02-22T19:33:54.133Z,32.60
2023-02-22T19:36:23.659Z,30.95
2023-02-22T19:38:52.885Z,28.02
2023-02-22T19:41:22.667Z,29.40
2023-02-22T19:43:51.930Z,31.05
2023-02-22T19:46:21.164Z,26.52
2023-02-22T19:48:51.895Z,27.88
2023-02-22T19:51:24.340Z,24.80
2023-02-22T19:53:54.256Z,29.77
2023-02-22T19:56:26.923Z,29.08
2023-02-22T19:58:56.886Z,28.55
2023-02-22T20:01:26.460Z,30.48
2023-02-22T20:03:59.552Z,32.45
2023-02-22T20:06:29.466Z,32.43
2023-02-22T20:08:58.902Z,28.58
2023-02-22T20:11:26.577Z,27.08
2023-02-22T20:13:55.662Z,31.38
2023-02-22T20:16:23.877Z,30.33
2023-02-22T20:18:52.397Z,26.10
2023-02-22T20:21:22.677Z,33.00
2023-02-22T20:23:50.595Z,34.60
2023-02-22T20:26:22.369Z,29.65
2023-02-22T20:28:50.065Z,30.13
2023-02-22T20:31:18.970Z,31.03
2023-02-22T20:33:49.151Z,33.22
2023-02-22T20:36:18.236Z,31.10
2023-02-22T20:38:46.922Z,26.73
2023-02-22T20:41:23.950Z,29.88
2023-02-22T20:43:52.303Z,26.53
2023-02-22T20:46:19.966Z,34.50
2023-02-22T20:48:47.590Z,29.00
2023-02-22T20:51:16.747Z,33.22
2023-02-22T20:53:45.013Z,30.17
2023-02-22T20:56:14.434Z,27.67
2023-02-22T20:58:44.154Z,26.08
2023-02-22T21:01:13.809Z,28.73
2023-02-22T21:03:42.864Z,29.13
2023-02-22T21:06:11.733Z,29.02
2023-02-22T21:08:39.309Z,34.03
2023-02-22T21:11:11.637Z,28.23
2023-02-22T21:13:41.050Z,31.02
2023-02-22T21:16:10.950Z,29.92
2023-02-22T21:18:38.512Z,28.63
2023-02-22T21:21:10.080Z,33.13
2023-02-22T21:23:37.938Z,31.75
2023-02-22T21:26:07.020Z,30.20
2023-02-22T21:28:50.500Z,29.50
2023-02-22T21:31:21.770Z,31.77
2023-02-22T21:33:51.556Z,30.30
2023-02-22T21:36:19.723Z,35.58
2023-02-22T21:38:49.321Z,29.92
2023-02-22T21:41:18.051Z,28.88
2023-02-22T21:43:50.564Z,30.90
2023-02-22T21:46:19.825Z,33.00
2023-02-22T21:48:49.278Z,26.27
2023-02-22T21:51:19.458Z,31.30
2023-02-22T21:53:49.037Z,29.88
2023-02-22T21:56:19.368Z,34.47
2023-02-22T21:58:47.612Z,30.10
2023-02-22T22:01:17.468Z,31.67
2023-02-22T22:03:47.663Z,31.67
2023-02-22T22:06:15.650Z,29.00
2023-02-22T22:08:45.978Z,28.77
2023-02-22T22:11:17.671Z,27.10
2023-02-22T22:13:45.573Z,31.00
2023-02-22T22:16:16.249Z,29.35
2023-02-22T22:18:46.689Z,27.65
2023-02-22T22:21:17.820Z,34.45
2023-02-22T22:23:47.409Z,33.28
2023-02-22T22:26:16.461Z,32.22
2023-02-22T22:28:46.379Z,30.58
2023-02-22T22:31:15.733Z,29.80
2023-02-22T22:33:44.445Z,27.92
2023-02-22T22:36:16.234Z,29.73
2023-02-22T22:38:46.821Z,27.90
2023-02-22T22:41:15.952Z,26.33
2023-02-22T22:43:45.923Z,27.40
2023-02-22T22:46:15.093Z,31.08
2023-02-22T22:48:43.237Z,29.53
2023-02-22T22:51:14.404Z,27.60
2023-02-22T22:53:44.511Z,28.13
2023-02-22T22:56:14.924Z,24.75
2023-02-22T22:58:43.943Z,27.63
2023-02-22T23:01:18.067Z,24.60
2023-02-22T23:03:54.666Z,25.55
2023-02-22T23:06:25.831Z,27.75
2023-02-22T23:08:59.761Z,28.60
2023-02-22T23:11:29.059Z,25.20
2023-02-22T23:13:57.323Z,29.30
2023-02-22T23:16:25.563Z,26.80
2023-02-22T23:18:53.030Z,26.65
2023-02-22T23:21:24.152Z,25.95
2023-02-22T23:23:55.973Z,21.88
2023-02-22T23:26:26.446Z,25.43
2023-02-22T23:28:55.854Z,19.83
2023-02-22T23:31:24.285Z,19.35
2023-02-22T23:33:52.496Z,22.50
2023-02-22T23:36:20.677Z,20.13
2023-02-22T23:38:49.907Z,18.23
2023-02-22T23:41:19.303Z,20.67
2023-02-22T23:43:47.176Z,19.67
2023-02-22T23:46:18.500Z,16.67
2023-02-22T23:48:51.218Z,17.80
2023-02-22T23:51:25.045Z,18.70
2023-02-22T23:53:55.526Z,18.70
2023-02-22T23:56:26.385Z,18.02
2023-02-22T23:58:56.994Z,18.88
